createdAt,value
2023-02-04T00:00:56.155Z,28.00
2023-02-04T00:05:50.556Z,41.90
2023-02-04T00:10:43.797Z,35.40
2023-02-04T00:15:37.653Z,34.72
2023-02-04T00:20:31.863Z,36.78
2023-02-04T00:25:25.281Z,34.95
2023-02-04T00:30:18.615Z,36.53
2023-02-04T00:35:12.353Z,37.35
2023-02-04T00:40:05.848Z,37.05
2023-02-04T00:44:59.781Z,41.33
2023-02-04T00:49:52.452Z,35.63
2023-02-04T00:54:45.746Z,36.00
2023-02-04T00:59:39.369Z,37.08
2023-02-04T01:04:31.703Z,41.67
2023-02-04T01:09:25.023Z,39.80
2023-02-04T01:14:19.141Z,37.47
2023-02-04T01:19:13.075Z,40.05
2023-02-04T01:24:06.267Z,46.08
2023-02-04T01:29:20.556Z,42.13
2023-02-04T01:34:14.385Z,40.65
2023-02-04T01:39:07.941Z,48.88
2023-02-04T01:44:01.292Z,39.50
2023-02-04T01:48:54.713Z,37.65
2023-02-04T01:53:48.104Z,41.67
2023-02-04T01:58:41.193Z,39.00
2023-02-04T02:03:33.974Z,44.40
2023-02-04T02:08:26.448Z,40.78
2023-02-04T02:13:19.946Z,38.22
2023-02-04T02:18:13.434Z,41.83
2023-02-04T02:23:37.877Z,48.55
2023-02-04T02:28:31.681Z,35.03
2023-02-04T02:33:26.728Z,38.08
2023-02-04T02:38:20.308Z,41.33
2023-02-04T02:43:18.609Z,36.20
2023-02-04T02:48:12.113Z,39.35
2023-02-04T02:53:04.603Z,35.38
2023-02-04T02:57:58.167Z,35.47
2023-02-04T03:03:15.526Z,36.17
2023-02-04T03:08:09.067Z,35.53
2023-02-04T03:13:02.189Z,34.40
2023-02-04T03:17:57.578Z,40.13
2023-02-04T03:22:51.957Z,35.85
2023-02-04T03:27:45.883Z,36.25
2023-02-04T03:32:38.867Z,37.03
2023-02-04T03:37:32.468Z,34.63
2023-02-04T03:42:26.356Z,35.50
2023-02-04T03:47:20.036Z,31.65
2023-02-04T03:52:13.165Z,35.60
2023-02-04T03:57:07.019Z,34.28
2023-02-04T04:02:00.544Z,39.00
2023-02-04T04:06:53.970Z,44.10
2023-02-04T04:11:47.226Z,41.20
2023-02-04T04:16:42.068Z,35.22
2023-02-04T04:21:35.091Z,36.78
2023-02-04T04:26:28.520Z,37.03
2023-02-04T04:31:23.229Z,37.67
2023-02-04T04:36:16.693Z,40.05
2023-02-04T04:41:09.876Z,33.53
2023-02-04T04:46:03.652Z,34.72
2023-02-04T04:50:57.482Z,36.67
2023-02-04T04:55:50.135Z,39.28
2023-02-04T05:00:42.981Z,42.50
2023-02-04T05:05:40.382Z,35.20
2023-02-04T05:10:33.999Z,35.70
2023-02-04T05:15:28.613Z,34.70
2023-02-04T05:20:27.342Z,48.15
2023-02-04T05:25:21.300Z,32.90
2023-02-04T05:30:16.742Z,34.78
2023-02-04T05:35:10.580Z,37.90
2023-02-04T05:40:06.190Z,37.45
2023-02-04T05:44:59.579Z,30.67
2023-02-04T05:49:53.495Z,31.13
2023-02-04T05:54:46.433Z,29.23
2023-02-04T05:59:38.687Z,31.83
2023-02-04T06:04:31.353Z,25.52
2023-02-04T06:09:25.624Z,28.67
2023-02-04T06:14:19.473Z,35.10
2023-02-04T06:19:14.825Z,28.90
2023-02-04T06:24:11.841Z,29.75
2023-02-04T06:29:05.348Z,30.65
2023-02-04T06:33:58.871Z,31.77
2023-02-04T06:38:52.743Z,33.78
2023-02-04T06:43:47.087Z,32.22
2023-02-04T06:48:41.093Z,34.08
2023-02-04T06:53:34.851Z,33.33
2023-02-04T06:58:28.135Z,32.13
2023-02-04T07:03:20.846Z,36.38
2023-02-04T07:08:13.534Z,32.03
2023-02-04T07:13:06.516Z,33.25
2023-02-04T07:18:00.595Z,35.53
2023-02-04T07:22:54.647Z,38.53
2023-02-04T07:27:48.434Z,40.22
2023-02-04T07:32:42.293Z,35.60
2023-02-04T07:37:36.152Z,30.52
2023-02-04T07:42:30.082Z,28.33
2023-02-04T07:47:32.523Z,25.25
2023-02-04T07:52:26.769Z,22.92
2023-02-04T07:57:21.415Z,29.05
2023-02-04T08:02:14.926Z,27.30
2023-02-04T08:07:08.202Z,29.05
2023-02-04T08:12:02.160Z,30.27
2023-02-04T08:16:55.464Z,25.65
2023-02-04T08:21:48.948Z,25.80
2023-02-04T08:26:43.384Z,23.98
2023-02-04T08:31:37.733Z,19.90
2023-02-04T08:36:31.081Z,22.33
2023-02-04T08:41:24.725Z,33.65
2023-02-04T08:46:18.926Z,23.50
2023-02-04T08:51:13.024Z,24.08
2023-02-04T08:56:09.934Z,25.55
2023-02-04T09:01:03.918Z,16.63
2023-02-04T09:05:56.944Z,17.33
2023-02-04T09:10:49.741Z,16.30
2023-02-04T09:15:43.400Z,22.27
2023-02-04T09:20:37.989Z,21.45
2023-02-04T09:25:31.276Z,25.50
2023-02-04T09:30:23.897Z,16.80
2023-02-04T09:35:16.911Z,18.40
2023-02-04T09:40:17.221Z,18.40
2023-02-04T09:45:19.384Z,14.60
2023-02-04T09:50:20.361Z,20.13
2023-02-04T09:55:18.402Z,14.80
2023-02-04T10:00:20.747Z,17.55
2023-02-04T10:05:19.673Z,18.20
2023-02-04T10:10:28.348Z,23.75
2023-02-04T10:15:21.566Z,26.55
2023-02-04T10:20:21.063Z,17.92
2023-02-04T10:25:21.619Z,20.48
2023-02-04T10:30:39.974Z,18.50
2023-02-04T10:35:33.565Z,17.83
2023-02-04T10:40:36.468Z,18.17
2023-02-04T10:45:31.457Z,16.50
2023-02-04T10:50:27.144Z,19.02
2023-02-04T10:55:24.970Z,17.60
2023-02-04T11:00:26.481Z,18.20
2023-02-04T11:05:21.703Z,16.80
2023-02-04T11:10:17.386Z,18.67
2023-02-04T11:15:42.183Z,23.20
2023-02-04T11:20:40.248Z,22.70
2023-02-04T11:25:36.964Z,28.77
2023-02-04T11:30:36.297Z,23.38
2023-02-04T11:35:30.835Z,21.70
2023-02-04T11:40:28.639Z,22.90
2023-02-04T11:45:24.969Z,20.48
2023-02-04T11:50:31.004Z,20.88
2023-02-04T11:55:25.509Z,21.13
2023-02-04T12:00:21.573Z,19.90
2023-02-04T12:05:35.925Z,21.90
2023-02-04T12:10:35.883Z,17.40
2023-02-04T12:15:36.710Z,15.70
2023-02-04T12:20:29.554Z,20.30
2023-02-04T12:25:23.471Z,19.23
2023-02-04T12:30:18.933Z,14.90
2023-02-04T12:35:12.182Z,14.93
2023-02-04T12:40:06.079Z,16.45
2023-02-04T12:44:58.872Z,14.88
2023-02-04T12:49:53.760Z,12.68
2023-02-04T12:54:47.400Z,14.93
2023-02-04T12:59:41.514Z,13.10
2023-02-04T13:04:37.196Z,16.10
2023-02-04T13:09:31.025Z,14.32
2023-02-04T13:14:24.634Z,15.45
2023-02-04T13:19:18.103Z,19.15
2023-02-04T13:24:11.265Z,13.75
2023-02-04T13:29:04.012Z,13.93
2023-02-04T13:33:58.416Z,14.90
2023-02-04T13:38:51.796Z,13.85
2023-02-04T13:43:45.809Z,11.45
2023-02-04T13:48:38.543Z,13.55
2023-02-04T13:53:32.329Z,14.57
2023-02-04T13:58:26.304Z,12.07
2023-02-04T14:03:19.750Z,14.05
2023-02-04T14:08:12.717Z,12.50
2023-02-04T14:13:05.891Z,15.70
2023-02-04T14:17:58.584Z,13.65
2023-02-04T14:22:52.536Z,11.48
2023-02-04T14:27:46.553Z,18.17
2023-02-04T14:32:40.975Z,14.95
2023-02-04T14:37:35.282Z,14.82
2023-02-04T14:42:29.121Z,16.92
2023-02-04T14:47:22.483Z,16.45
2023-02-04T14:52:16.631Z,15.23
2023-02-04T14:57:12.241Z,13.20
2023-02-04T15:02:05.951Z,19.00
2023-02-04T15:07:00.462Z,22.75
2023-02-04T15:11:53.508Z,15.65
2023-02-04T15:16:49.351Z,14.88
2023-02-04T15:21:43.924Z,14.07
2023-02-04T15:26:37.012Z,18.38
2023-02-04T15:31:31.473Z,15.10
2023-02-04T15:36:25.467Z,16.10
2023-02-04T15:41:19.141Z,16.45
2023-02-04T15:46:12.438Z,13.35
2023-02-04T15:51:07.281Z,20.15
2023-02-04T15:56:01.313Z,17.42
2023-02-04T16:00:54.483Z,19.17
2023-02-04T16:05:48.199Z,18.80
2023-02-04T16:10:41.191Z,17.40
2023-02-04T16:15:34.470Z,23.33
2023-02-04T16:20:28.264Z,25.60
2023-02-04T16:25:24.256Z,32.70
2023-02-04T16:30:18.548Z,71.68
2023-02-04T16:35:11.661Z,79.82
2023-02-04T16:40:07.083Z,92.97
2023-02-04T16:45:00.573Z,85.68
2023-02-04T16:49:55.696Z,89.35
2023-02-04T16:54:49.833Z,83.70
2023-02-04T16:59:42.459Z,85.97
2023-02-04T17:04:35.621Z,87.47
2023-02-04T17:09:29.936Z,89.07
2023-02-04T17:14:24.818Z,95.32
2023-02-04T17:19:18.222Z,94.45
2023-02-04T17:24:12.195Z,96.22
2023-02-04T17:29:35.950Z,84.90
2023-02-04T17:34:49.617Z,91.57
2023-02-04T17:39:42.632Z,96.30
2023-02-04T17:44:36.478Z,99.95
2023-02-04T17:49:34.479Z,98.72
2023-02-04T17:54:28.019Z,102.47
2023-02-04T17:59:21.910Z,92.00
2023-02-04T18:04:16.246Z,91.35
2023-02-04T18:09:16.446Z,89.40
2023-02-04T18:14:23.273Z,98.05
2023-02-04T18:19:17.332Z,95.85
2023-02-04T18:24:09.080Z,98.28
2023-02-04T18:29:02.343Z,95.60
2023-02-04T18:33:54.981Z,92.78
2023-02-04T18:38:47.712Z,95.00
2023-02-04T18:43:41.910Z,102.15
2023-02-04T18:49:07.078Z,107.63
2023-02-04T18:54:05.350Z,101.30
2023-02-04T18:58:59.297Z,96.23
2023-02-04T19:03:56.237Z,88.32
2023-02-04T19:08:49.481Z,96.65
2023-02-04T19:13:42.890Z,98.50
2023-02-04T19:18:39.685Z,102.10
2023-02-04T19:23:38.296Z,172.35
2023-02-04T19:28:52.779Z,112.60
2023-02-04T19:33:46.339Z,120.70
2023-02-04T19:38:46.292Z,89.93
2023-02-04T19:43:40.006Z,111.78
2023-02-04T19:48:39.703Z,117.93
2023-02-04T19:53:33.366Z,103.65
2023-02-04T19:58:30.511Z,97.65
2023-02-04T20:04:04.787Z,105.32
2023-02-04T20:09:04.882Z,112.15
2023-02-04T20:14:14.747Z,104.18
2023-02-04T20:19:34.060Z,114.22
2023-02-04T20:24:31.177Z,112.85
2023-02-04T20:29:25.256Z,120.70
2023-02-04T20:34:38.183Z,99.00
2023-02-04T20:39:39.780Z,82.75
2023-02-04T20:44:40.172Z,97.93
2023-02-04T20:49:40.939Z,104.07
2023-02-04T20:54:35.175Z,120.13
2023-02-04T20:59:31.493Z,112.97
2023-02-04T21:04:30.706Z,113.32
2023-02-04T21:09:29.758Z,116.25
2023-02-04T21:14:24.442Z,100.55
2023-02-04T21:19:17.669Z,77.88
2023-02-04T21:24:12.951Z,82.78
2023-02-04T21:29:06.552Z,86.93
2023-02-04T21:34:00.499Z,79.70
2023-02-04T21:39:13.870Z,81.93
2023-02-04T21:44:07.223Z,80.35
2023-02-04T21:48:59.495Z,80.30
2023-02-04T21:53:53.519Z,78.28
2023-02-04T21:58:46.964Z,99.82
2023-02-04T22:03:41.753Z,103.93
2023-02-04T22:08:34.469Z,93.25
2023-02-04T22:13:47.259Z,93.18
2023-02-04T22:18:41.125Z,101.55
2023-02-04T22:23:34.436Z,99.88
2023-02-04T22:28:27.505Z,106.13
2023-02-04T22:33:20.451Z,109.97
2023-02-04T22:38:14.068Z,110.13
2023-02-04T22:43:07.384Z,114.53
2023-02-04T22:47:59.988Z,120.75
2023-02-04T22:52:54.324Z,115.78
2023-02-04T22:57:47.254Z,113.30
2023-02-04T23:02:41.114Z,118.07
2023-02-04T23:07:33.801Z,120.50
2023-02-04T23:12:26.629Z,107.97
2023-02-04T23:17:19.854Z,110.60
2023-02-04T23:22:18.026Z,113.22
2023-02-04T23:27:11.899Z,99.57
2023-02-04T23:32:06.334Z,106.63
2023-02-04T23:37:00.766Z,104.55
2023-02-04T23:41:54.627Z,103.13
2023-02-04T23:46:48.426Z,112.03
2023-02-04T23:51:41.904Z,102.43
2023-02-04T23:56:35.776Z,106.85
